sensor_id;sensor_type;location;lat;lon;timestamp;P1;durP1;ratioP1;P2;durP2;ratioP2
32329;SDS011;18807;52.434;13.238;2023-02-02T00:02:27;11.23;;;3.10;;
32329;SDS011;18807;52.434;13.238;2023-02-02T00:10:01;11.40;;;1.77;;
32329;SDS011;18807;52.434;13.238;2023-02-02T00:17:37;10.03;;;1.97;;
32329;SDS011;18807;52.434;13.238;2023-02-02T00:25:11;11.65;;;2.05;;
32329;SDS011;18807;52.434;13.238;2023-02-02T00:32:46;11.43;;;1.63;;
32329;SDS011;18807;52.434;13.238;2023-02-02T00:40:21;11.48;;;2.08;;
32329;SDS011;18807;52.434;13.238;2023-02-02T00:47:57;17.10;;;2.42;;
32329;SDS011;18807;52.434;13.238;2023-02-02T00:55:31;18.70;;;2.97;;
32329;SDS011;18807;52.434;13.238;2023-02-02T01:03:06;14.90;;;2.83;;
32329;SDS011;18807;52.434;13.238;2023-02-02T01:10:41;18.90;;;3.25;;
32329;SDS011;18807;52.434;13.238;2023-02-02T01:18:16;16.90;;;2.27;;
32329;SDS011;18807;52.434;13.238;2023-02-02T01:25:52;15.80;;;2.17;;
32329;SDS011;18807;52.434;13.238;2023-02-02T01:33:28;13.35;;;2.08;;
32329;SDS011;18807;52.434;13.238;2023-02-02T01:41:02;9.43;;;1.70;;
32329;SDS011;18807;52.434;13.238;2023-02-02T01:48:37;20.58;;;2.58;;
32329;SDS011;18807;52.434;13.238;2023-02-02T01:56:15;8.43;;;1.80;;
32329;SDS011;18807;52.434;13.238;2023-02-02T02:03:53;12.48;;;2.33;;
32329;SDS011;18807;52.434;13.238;2023-02-02T02:11:28;13.57;;;2.28;;
32329;SDS011;18807;52.434;13.238;2023-02-02T02:19:14;14.70;;;2.30;;
32329;SDS011;18807;52.434;13.238;2023-02-02T02:27:16;10.00;;;2.58;;
32329;SDS011;18807;52.434;13.238;2023-02-02T02:35:19;10.43;;;2.38;;
32329;SDS011;18807;52.434;13.238;2023-02-02T02:43:02;8.90;;;1.90;;
32329;SDS011;18807;52.434;13.238;2023-02-02T02:50:42;10.75;;;2.13;;
32329;SDS011;18807;52.434;13.238;2023-02-02T02:58:17;13.73;;;2.42;;
32329;SDS011;18807;52.434;13.238;2023-02-02T03:06:00;13.50;;;2.08;;
32329;SDS011;18807;52.434;13.238;2023-02-02T03:13:40;14.48;;;3.95;;
32329;SDS011;18807;52.434;13.238;2023-02-02T03:21:17;11.02;;;2.05;;
32329;SDS011;18807;52.434;13.238;2023-02-02T03:28:51;11.07;;;2.08;;
32329;SDS011;18807;52.434;13.238;2023-02-02T03:36:30;8.38;;;1.67;;
32329;SDS011;18807;52.434;13.238;2023-02-02T03:44:04;7.88;;;1.38;;
32329;SDS011;18807;52.434;13.238;2023-02-02T03:51:39;6.40;;;1.07;;
32329;SDS011;18807;52.434;13.238;2023-02-02T03:59:14;15.50;;;1.90;;
32329;SDS011;18807;52.434;13.238;2023-02-02T04:06:49;6.33;;;1.20;;
32329;SDS011;18807;52.434;13.238;2023-02-02T04:14:23;6.20;;;0.98;;
32329;SDS011;18807;52.434;13.238;2023-02-02T04:21:58;6.53;;;1.17;;
32329;SDS011;18807;52.434;13.238;2023-02-02T04:29:32;8.10;;;1.40;;
32329;SDS011;18807;52.434;13.238;2023-02-02T04:37:09;5.10;;;1.20;;
32329;SDS011;18807;52.434;13.238;2023-02-02T04:44:43;5.07;;;1.20;;
32329;SDS011;18807;52.434;13.238;2023-02-02T04:52:19;5.93;;;1.43;;
32329;SDS011;18807;52.434;13.238;2023-02-02T04:59:53;5.75;;;1.00;;
32329;SDS011;18807;52.434;13.238;2023-02-02T05:07:28;6.50;;;1.63;;
32329;SDS011;18807;52.434;13.238;2023-02-02T05:15:02;3.53;;;0.82;;
32329;SDS011;18807;52.434;13.238;2023-02-02T05:30:13;10.82;;;1.23;;
32329;SDS011;18807;52.434;13.238;2023-02-02T05:37:49;7.10;;;1.77;;
32329;SDS011;18807;52.434;13.238;2023-02-02T05:45:23;11.30;;;1.88;;
32329;SDS011;18807;52.434;13.238;2023-02-02T06:00:32;6.00;;;1.20;;
32329;SDS011;18807;52.434;13.238;2023-02-02T06:08:08;7.83;;;1.27;;
32329;SDS011;18807;52.434;13.238;2023-02-02T06:15:41;3.00;;;1.00;;
32329;SDS011;18807;52.434;13.238;2023-02-02T06:23:17;1.63;;;0.60;;
32329;SDS011;18807;52.434;13.238;2023-02-02T06:30:51;9.35;;;1.63;;
32329;SDS011;18807;52.434;13.238;2023-02-02T06:38:27;6.68;;;1.05;;
32329;SDS011;18807;52.434;13.238;2023-02-02T06:46:01;10.65;;;1.63;;
32329;SDS011;18807;52.434;13.238;2023-02-02T06:53:37;4.13;;;1.33;;
32329;SDS011;18807;52.434;13.238;2023-02-02T07:01:11;9.00;;;1.60;;
32329;SDS011;18807;52.434;13.238;2023-02-02T07:08:47;7.68;;;1.20;;
32329;SDS011;18807;52.434;13.238;2023-02-02T07:16:34;10.27;;;1.67;;
32329;SDS011;18807;52.434;13.238;2023-02-02T07:24:09;4.47;;;1.50;;
32329;SDS011;18807;52.434;13.238;2023-02-02T07:31:43;8.15;;;1.38;;
32329;SDS011;18807;52.434;13.238;2023-02-02T07:39:19;9.52;;;2.22;;
32329;SDS011;18807;52.434;13.238;2023-02-02T07:46:53;10.20;;;1.77;;
32329;SDS011;18807;52.434;13.238;2023-02-02T07:54:28;9.23;;;1.43;;
32329;SDS011;18807;52.434;13.238;2023-02-02T08:02:03;13.73;;;1.95;;
32329;SDS011;18807;52.434;13.238;2023-02-02T08:09:38;13.68;;;1.85;;
32329;SDS011;18807;52.434;13.238;2023-02-02T08:17:12;10.18;;;1.75;;
32329;SDS011;18807;52.434;13.238;2023-02-02T08:24:48;8.60;;;1.95;;
32329;SDS011;18807;52.434;13.238;2023-02-02T08:32:22;15.48;;;1.65;;
32329;SDS011;18807;52.434;13.238;2023-02-02T08:39:57;8.50;;;1.20;;
32329;SDS011;18807;52.434;13.238;2023-02-02T08:47:33;7.18;;;1.00;;
32329;SDS011;18807;52.434;13.238;2023-02-02T08:55:08;5.25;;;1.17;;
32329;SDS011;18807;52.434;13.238;2023-02-02T09:02:43;7.15;;;1.48;;
32329;SDS011;18807;52.434;13.238;2023-02-02T09:10:18;7.03;;;1.20;;
32329;SDS011;18807;52.434;13.238;2023-02-02T09:17:53;7.88;;;1.05;;
32329;SDS011;18807;52.434;13.238;2023-02-02T09:25:28;12.03;;;1.40;;
32329;SDS011;18807;52.434;13.238;2023-02-02T09:33:02;13.93;;;2.45;;
32329;SDS011;18807;52.434;13.238;2023-02-02T09:55:57;5.63;;;1.20;;
32329;SDS011;18807;52.434;13.238;2023-02-02T10:03:37;3.17;;;1.00;;
32329;SDS011;18807;52.434;13.238;2023-02-02T10:11:30;12.10;;;1.50;;
32329;SDS011;18807;52.434;13.238;2023-02-02T10:19:10;9.85;;;1.17;;
32329;SDS011;18807;52.434;13.238;2023-02-02T10:26:48;4.78;;;1.05;;
32329;SDS011;18807;52.434;13.238;2023-02-02T10:34:26;3.42;;;0.60;;
32329;SDS011;18807;52.434;13.238;2023-02-02T10:42:09;12.50;;;3.05;;
32329;SDS011;18807;52.434;13.238;2023-02-02T10:49:53;7.93;;;1.15;;
32329;SDS011;18807;52.434;13.238;2023-02-02T10:57:47;5.77;;;1.13;;
32329;SDS011;18807;52.434;13.238;2023-02-02T11:05:30;8.18;;;1.10;;
32329;SDS011;18807;52.434;13.238;2023-02-02T11:13:26;10.27;;;1.23;;
32329;SDS011;18807;52.434;13.238;2023-02-02T11:21:04;5.82;;;1.02;;
32329;SDS011;18807;52.434;13.238;2023-02-02T11:28:52;10.52;;;1.17;;
32329;SDS011;18807;52.434;13.238;2023-02-02T11:36:31;5.10;;;1.30;;
32329;SDS011;18807;52.434;13.238;2023-02-02T11:44:09;10.37;;;1.37;;
32329;SDS011;18807;52.434;13.238;2023-02-02T11:51:59;5.68;;;0.60;;
32329;SDS011;18807;52.434;13.238;2023-02-02T11:59:37;4.10;;;1.40;;
32329;SDS011;18807;52.434;13.238;2023-02-02T12:07:20;6.53;;;0.85;;
32329;SDS011;18807;52.434;13.238;2023-02-02T12:15:00;6.03;;;1.40;;
32329;SDS011;18807;52.434;13.238;2023-02-02T12:22:49;4.50;;;0.97;;
32329;SDS011;18807;52.434;13.238;2023-02-02T12:30:33;2.28;;;0.47;;
32329;SDS011;18807;52.434;13.238;2023-02-02T12:38:17;4.53;;;0.40;;
32329;SDS011;18807;52.434;13.238;2023-02-02T12:46:02;3.30;;;0.50;;
32329;SDS011;18807;52.434;13.238;2023-02-02T12:53:58;2.67;;;0.60;;
32329;SDS011;18807;52.434;13.238;2023-02-02T13:02:18;6.40;;;0.70;;
32329;SDS011;18807;52.434;13.238;2023-02-02T13:10:03;1.45;;;0.60;;
32329;SDS011;18807;52.434;13.238;2023-02-02T13:17:46;4.57;;;0.80;;
32329;SDS011;18807;52.434;13.238;2023-02-02T13:25:25;3.53;;;0.70;;
32329;SDS011;18807;52.434;13.238;2023-02-02T13:33:04;3.65;;;0.88;;
32329;SDS011;18807;52.434;13.238;2023-02-02T13:40:48;4.38;;;0.88;;
32329;SDS011;18807;52.434;13.238;2023-02-02T13:48:28;3.28;;;0.90;;
32329;SDS011;18807;52.434;13.238;2023-02-02T14:03:53;4.10;;;0.80;;
32329;SDS011;18807;52.434;13.238;2023-02-02T14:11:30;6.80;;;1.65;;
32329;SDS011;18807;52.434;13.238;2023-02-02T14:19:10;5.07;;;1.10;;
32329;SDS011;18807;52.434;13.238;2023-02-02T14:26:47;7.05;;;0.60;;
32329;SDS011;18807;52.434;13.238;2023-02-02T14:34:28;2.50;;;0.60;;
32329;SDS011;18807;52.434;13.238;2023-02-02T14:42:09;3.22;;;1.40;;
32329;SDS011;18807;52.434;13.238;2023-02-02T14:50:15;4.15;;;1.48;;
32329;SDS011;18807;52.434;13.238;2023-02-02T14:57:54;2.17;;;0.47;;
32329;SDS011;18807;52.434;13.238;2023-02-02T15:05:34;5.00;;;0.70;;
32329;SDS011;18807;52.434;13.238;2023-02-02T15:13:13;0.93;;;0.40;;
32329;SDS011;18807;52.434;13.238;2023-02-02T15:20:52;1.85;;;0.60;;
32329;SDS011;18807;52.434;13.238;2023-02-02T15:28:34;4.88;;;0.70;;
32329;SDS011;18807;52.434;13.238;2023-02-02T15:36:17;3.28;;;0.63;;
32329;SDS011;18807;52.434;13.238;2023-02-02T15:43:55;1.00;;;0.55;;
32329;SDS011;18807;52.434;13.238;2023-02-02T15:51:30;1.23;;;0.73;;
32329;SDS011;18807;52.434;13.238;2023-02-02T15:59:13;2.58;;;0.50;;
32329;SDS011;18807;52.434;13.238;2023-02-02T16:06:53;1.02;;;0.30;;
32329;SDS011;18807;52.434;13.238;2023-02-02T16:14:28;1.23;;;0.40;;
32329;SDS011;18807;52.434;13.238;2023-02-02T16:22:06;1.38;;;0.40;;
32329;SDS011;18807;52.434;13.238;2023-02-02T16:29:43;1.20;;;0.38;;
32329;SDS011;18807;52.434;13.238;2023-02-02T16:44:57;1.52;;;0.70;;
32329;SDS011;18807;52.434;13.238;2023-02-02T16:52:34;2.47;;;0.80;;
32329;SDS011;18807;52.434;13.238;2023-02-02T17:00:21;1.75;;;0.90;;
32329;SDS011;18807;52.434;13.238;2023-02-02T17:08:00;3.47;;;1.63;;
32329;SDS011;18807;52.434;13.238;2023-02-02T17:15:36;2.92;;;1.38;;
32329;SDS011;18807;52.434;13.238;2023-02-02T17:23:14;4.30;;;1.60;;
32329;SDS011;18807;52.434;13.238;2023-02-02T17:30:51;4.05;;;1.40;;
32329;SDS011;18807;52.434;13.238;2023-02-02T17:38:33;3.70;;;1.83;;
32329;SDS011;18807;52.434;13.238;2023-02-02T17:46:07;3.10;;;1.75;;
32329;SDS011;18807;52.434;13.238;2023-02-02T17:53:45;4.88;;;1.52;;
32329;SDS011;18807;52.434;13.238;2023-02-02T18:01:18;3.92;;;1.65;;
32329;SDS011;18807;52.434;13.238;2023-02-02T18:08:54;2.13;;;1.40;;
32329;SDS011;18807;52.434;13.238;2023-02-02T18:16:28;3.53;;;1.77;;
32329;SDS011;18807;52.434;13.238;2023-02-02T18:24:03;3.67;;;2.40;;
32329;SDS011;18807;52.434;13.238;2023-02-02T18:31:37;6.80;;;2.63;;
32329;SDS011;18807;52.434;13.238;2023-02-02T18:39:15;4.20;;;2.80;;
32329;SDS011;18807;52.434;13.238;2023-02-02T18:46:49;7.10;;;3.53;;
32329;SDS011;18807;52.434;13.238;2023-02-02T18:54:24;8.85;;;3.70;;
32329;SDS011;18807;52.434;13.238;2023-02-02T19:01:58;7.15;;;4.53;;
32329;SDS011;18807;52.434;13.238;2023-02-02T19:09:33;8.57;;;3.77;;
32329;SDS011;18807;52.434;13.238;2023-02-02T19:17:11;10.38;;;4.03;;
32329;SDS011;18807;52.434;13.238;2023-02-02T19:24:54;8.43;;;3.65;;
32329;SDS011;18807;52.434;13.238;2023-02-02T19:32:30;5.45;;;3.65;;
32329;SDS011;18807;52.434;13.238;2023-02-02T19:40:14;7.68;;;4.43;;
32329;SDS011;18807;52.434;13.238;2023-02-02T19:47:52;6.60;;;3.38;;
32329;SDS011;18807;52.434;13.238;2023-02-02T19:55:29;7.90;;;4.70;;
32329;SDS011;18807;52.434;13.238;2023-02-02T20:03:09;9.82;;;5.43;;
32329;SDS011;18807;52.434;13.238;2023-02-02T20:10:46;9.55;;;5.45;;
32329;SDS011;18807;52.434;13.238;2023-02-02T20:18:21;6.72;;;4.68;;
32329;SDS011;18807;52.434;13.238;2023-02-02T20:25:58;11.40;;;5.78;;
32329;SDS011;18807;52.434;13.238;2023-02-02T20:33:35;12.18;;;6.10;;
32329;SDS011;18807;52.434;13.238;2023-02-02T20:41:11;13.10;;;7.63;;
32329;SDS011;18807;52.434;13.238;2023-02-02T20:48:47;14.73;;;9.07;;
32329;SDS011;18807;52.434;13.238;2023-02-02T20:56:22;18.17;;;10.05;;
32329;SDS011;18807;52.434;13.238;2023-02-02T21:03:56;18.00;;;11.25;;
32329;SDS011;18807;52.434;13.238;2023-02-02T21:11:31;22.75;;;10.32;;
32329;SDS011;18807;52.434;13.238;2023-02-02T21:19:06;19.80;;;11.65;;
32329;SDS011;18807;52.434;13.238;2023-02-02T21:26:41;20.67;;;10.68;;
32329;SDS011;18807;52.434;13.238;2023-02-02T21:34:16;23.08;;;12.88;;
32329;SDS011;18807;52.434;13.238;2023-02-02T21:41:54;18.08;;;11.00;;
32329;SDS011;18807;52.434;13.238;2023-02-02T21:49:42;17.45;;;10.93;;
32329;SDS011;18807;52.434;13.238;2023-02-02T21:57:18;22.38;;;12.00;;
32329;SDS011;18807;52.434;13.238;2023-02-02T22:04:54;21.83;;;11.27;;
32329;SDS011;18807;52.434;13.238;2023-02-02T22:12:31;22.05;;;11.43;;
32329;SDS011;18807;52.434;13.238;2023-02-02T22:20:17;22.52;;;12.05;;
32329;SDS011;18807;52.434;13.238;2023-02-02T22:28:05;19.38;;;11.50;;
32329;SDS011;18807;52.434;13.238;2023-02-02T22:35:49;18.42;;;10.25;;
32329;SDS011;18807;52.434;13.238;2023-02-02T22:43:24;18.92;;;9.50;;
32329;SDS011;18807;52.434;13.238;2023-02-02T22:50:58;19.58;;;9.18;;
32329;SDS011;18807;52.434;13.238;2023-02-02T22:58:33;18.17;;;10.23;;
32329;SDS011;18807;52.434;13.238;2023-02-02T23:06:07;20.55;;;9.90;;
32329;SDS011;18807;52.434;13.238;2023-02-02T23:13:42;12.70;;;7.95;;
32329;SDS011;18807;52.434;13.238;2023-02-02T23:21:16;13.65;;;7.05;;
32329;SDS011;18807;52.434;13.238;2023-02-02T23:28:51;12.57;;;5.05;;
32329;SDS011;18807;52.434;13.238;2023-02-02T23:36:25;7.88;;;4.10;;
32329;SDS011;18807;52.434;13.238;2023-02-02T23:44:00;8.27;;;4.03;;
32329;SDS011;18807;52.434;13.238;2023-02-02T23:51:34;12.43;;;5.32;;
32329;SDS011;18807;52.434;13.238;2023-02-02T23:59:10;14.32;;;5.90;;
